Time;durP1;ratioP1;P1;durP2;ratioP2;P2;SDS_P1;SDS_P2;PMS_P1;PMS_P2;Temp;Humidity;BMP_temperature;BMP_pressure;BME280_temperature;BME280_humidity;BME280_pressure;Samples;Min_cycle;Max_cycle;Signal;HPM_P1;HPM_P2
2023/03/26 00:00:27;;;;;;;6.50;2.00;;;;;;;7.19;99.00;100642.41;5037167;28;20017;-91
2023/03/26 00:02:52;;;;;;;8.47;2.27;;;;;;;7.16;98.94;100642.41;5043127;23;20493;-92
2023/03/26 00:05:17;;;;;;;6.37;1.90;;;;;;;7.13;98.73;100642.44;5036849;28;20485;-91
2023/03/26 00:07:42;;;;;;;4.88;1.83;;;;;;;7.09;98.11;100636.44;5033817;28;20462;-91
2023/03/26 00:10:08;;;;;;;5.73;2.00;;;;;;;7.07;97.96;100638.16;5036854;28;20109;-91
2023/03/26 00:12:34;;;;;;;5.57;1.83;;;;;;;7.10;97.82;100650.19;5036934;28;20060;-91
2023/03/26 00:14:59;;;;;;;5.00;1.80;;;;;;;7.04;98.17;100637.31;5036938;28;20026;-91
2023/03/26 00:17:24;;;;;;;4.30;1.90;;;;;;;7.06;97.34;100643.31;5037087;28;20029;-91
2023/03/26 00:19:52;;;;;;;5.53;2.13;;;;;;;7.04;97.99;100642.47;5036234;28;20111;-91
2023/03/26 00:22:17;;;;;;;6.18;1.98;;;;;;;6.99;97.85;100633.88;5037102;28;20096;-91
2023/03/26 00:24:44;;;;;;;5.37;1.70;;;;;;;6.93;98.27;100645.06;5036821;28;20044;-91
2023/03/26 00:27:10;;;;;;;;;;;;;;;6.92;97.83;100643.38;5036926;28;20022;-90
2023/03/26 00:29:35;;;;;;;10.23;2.33;;;;;;;6.90;97.20;100639.94;5037287;28;19967;-91
2023/03/26 00:32:01;;;;;;;4.70;1.70;;;;;;;6.86;97.41;100638.22;5036594;28;20017;-91
2023/03/26 00:34:26;;;;;;;3.78;1.80;;;;;;;6.87;97.41;100637.38;5036825;28;20022;-91
2023/03/26 00:36:54;;;;;;;4.03;1.63;;;;;;;6.83;97.34;100625.34;5036354;28;20061;-91
2023/03/26 00:39:22;;;;;;;2.90;1.25;;;;;;;6.82;97.20;100626.19;5036506;28;20040;-91
2023/03/26 00:41:52;;;;;;;5.85;1.52;;;;;;;6.77;96.95;100621.06;5036328;28;20025;-91
2023/03/26 00:44:18;;;;;;;2.65;1.38;;;;;;;6.76;96.70;100616.75;5036793;28;20061;-91
2023/03/26 00:46:43;;;;;;;6.27;1.87;;;;;;;6.70;96.74;100609.91;5036701;28;20053;-91
2023/03/26 00:49:13;;;;;;;4.90;1.63;;;;;;;6.70;96.67;100611.63;5035841;28;20025;-91
2023/03/26 00:51:40;;;;;;;3.72;1.60;;;;;;;6.70;96.89;100612.47;5036326;28;20100;-91
2023/03/26 00:54:07;;;;;;;2.15;1.60;;;;;;;6.68;96.68;100616.81;5036125;28;20026;-91
2023/03/26 00:56:32;;;;;;;;;;;;;;;6.65;97.67;100614.22;5036508;28;20033;-91
2023/03/26 00:59:00;;;;;;;5.43;1.67;;;;;;;6.61;97.11;100602.19;5035581;28;19913;-91
2023/03/26 01:01:27;;;;;;;3.55;1.48;;;;;;;6.60;96.91;100608.22;5036276;28;20017;-91
2023/03/26 01:03:57;;;;;;;6.43;1.70;;;;;;;6.59;96.81;100607.38;5035794;28;20050;-91
2023/03/26 01:06:34;;;;;;;2.28;1.30;;;;;;;6.55;96.96;100597.06;5036442;28;20026;-91
2023/03/26 01:09:13;;;;;;;4.35;1.63;;;;;;;6.56;97.02;100591.03;5036091;28;20028;-92
2023/03/26 01:11:38;;;;;;;2.85;1.40;;;;;;;6.55;96.82;100587.59;5015671;28;20030;-90
2023/03/26 01:14:08;;;;;;;3.57;1.60;;;;;;;6.53;96.84;100579.00;5015956;28;20473;-91
2023/03/26 01:16:36;;;;;;;5.07;1.63;;;;;;;6.53;96.51;100573.00;5015852;28;20470;-90
2023/03/26 01:19:09;;;;;;;7.03;1.65;;;;;;;6.54;96.42;100569.56;5016341;28;20481;-91
2023/03/26 01:21:37;;;;;;;5.45;1.77;;;;;;;6.52;96.31;100564.41;5016161;28;20072;-90
2023/03/26 01:24:05;;;;;;;7.53;1.92;;;;;;;6.51;96.12;100567.84;5015799;28;20030;-90
2023/03/26 01:26:58;;;;;;;5.28;1.70;;;;;;;6.49;96.28;100562.69;5015977;28;20451;-90
2023/03/26 01:29:47;;;;;;;5.70;2.15;;;;;;;6.46;96.34;100559.25;5016144;28;20025;-91
2023/03/26 01:32:33;;;;;;;3.53;1.40;;;;;;;6.42;96.46;100553.25;5016044;28;20060;-91
2023/03/26 01:35:11;;;;;;;4.45;1.88;;;;;;;6.39;96.80;100547.25;5015532;28;20120;-91
2023/03/26 01:37:59;;;;;;;5.57;1.83;;;;;;;6.34;97.22;100539.56;5015763;28;20073;-91
2023/03/26 01:40:41;;;;;;;5.60;1.80;;;;;;;6.30;96.73;100533.56;5015550;28;20088;-90
2023/03/26 01:43:19;;;;;;;4.25;1.70;;;;;;;6.30;96.70;100532.69;5015588;28;20026;-90
2023/03/26 01:45:48;;;;;;;5.18;1.75;;;;;;;6.29;96.61;100536.97;5015544;28;20101;-91
2023/03/26 01:48:13;;;;;;;3.63;1.58;;;;;;;6.23;96.76;100531.81;5015087;28;20442;-90
2023/03/26 01:50:39;;;;;;;4.07;1.67;;;;;;;6.23;96.63;100536.97;5015333;28;20037;-91
2023/03/26 01:53:05;;;;;;;3.63;1.23;;;;;;;6.22;96.64;100534.41;5015396;28;20033;-90
2023/03/26 01:55:52;;;;;;;5.30;2.00;;;;;;;6.19;97.18;100530.13;5015527;28;20062;-90
2023/03/26 01:58:48;;;;;;;4.32;1.73;;;;;;;6.14;97.06;100532.69;5015448;28;20037;-90
2023/03/26 02:01:26;;;;;;;4.22;1.60;;;;;;;6.14;97.09;100529.28;4965448;28;20046;-90
2023/03/26 02:04:14;;;;;;;3.45;1.30;;;;;;;6.13;97.64;100522.41;5014899;28;20061;-90
2023/03/26 02:06:46;;;;;;;3.40;1.67;;;;;;;6.11;97.00;100511.25;5015067;28;20029;-91
2023/03/26 02:09:18;;;;;;;5.68;1.60;;;;;;;6.10;96.65;100501.78;5014876;28;20080;-91
2023/03/26 02:11:44;;;;;;;7.97;1.88;;;;;;;6.13;96.52;100510.41;5014688;28;20084;-91
2023/03/26 02:14:09;;;;;;;3.90;1.63;;;;;;;6.14;96.85;100503.50;5015264;28;20026;-90
2023/03/26 02:16:35;;;;;;;7.25;1.75;;;;;;;6.13;96.90;100499.22;5068529;23;20370;-90
2023/03/26 02:19:00;;;;;;;3.17;1.20;;;;;;;6.10;97.23;100487.22;5014467;28;20542;-91
2023/03/26 02:21:26;;;;;;;2.42;1.27;;;;;;;6.09;97.08;100484.63;5015091;28;20026;-90
2023/03/26 02:24:01;;;;;;;3.40;1.37;;;;;;;6.07;96.76;100481.22;5014696;28;20070;-91
2023/03/26 02:26:28;;;;;;;2.85;1.27;;;;;;;6.05;97.21;100482.94;5014702;28;20030;-91
2023/03/26 02:29:18;;;;;;;2.95;1.10;;;;;;;6.00;97.19;100478.63;5070561;22;20021;-90
2023/03/26 02:31:43;;;;;;;2.50;1.23;;;;;;;5.97;97.39;100477.75;5013639;28;20510;-90
2023/03/26 02:34:18;;;;;;;2.23;1.30;;;;;;;5.88;97.03;100458.88;5014003;28;20025;-90
2023/03/26 02:36:43;;;;;;;3.85;1.40;;;;;;;5.89;96.98;100464.88;5014454;28;20044;-91
2023/03/26 02:39:13;;;;;;;4.23;1.60;;;;;;;5.87;97.04;100462.31;5014718;28;20101;-90
2023/03/26 02:41:49;;;;;;;4.88;1.50;;;;;;;5.85;97.07;100440.84;5016363;28;20022;-91
2023/03/26 02:44:15;;;;;;;4.57;1.50;;;;;;;5.97;97.61;100467.44;5014290;28;20028;-90
2023/03/26 02:46:49;;;;;;;4.93;1.47;;;;;;;5.90;96.96;100451.16;5014759;28;20050;-90
2023/03/26 02:49:27;;;;;;;6.68;1.80;;;;;;;5.97;97.52;100449.41;5014404;28;20017;-91
2023/03/26 02:51:55;;;;;;;4.95;1.63;;;;;;;6.01;97.56;100457.16;5013779;28;20046;-90
2023/03/26 02:54:20;;;;;;;8.48;2.22;;;;;;;5.95;97.09;100427.94;5013984;28;20438;-90
2023/03/26 02:56:46;;;;;;;9.57;2.07;;;;;;;5.98;97.28;100431.38;5014461;28;20022;-91
2023/03/26 02:59:12;;;;;;;8.38;2.20;;;;;;;6.08;97.26;100436.56;5014049;28;20022;-90
2023/03/26 03:01:41;;;;;;;4.10;1.77;;;;;;;6.10;97.24;100438.25;5014294;28;20102;-90
2023/03/26 03:04:10;;;;;;;7.55;1.88;;;;;;;6.11;97.46;100431.38;5014240;28;20018;-90
2023/03/26 03:06:37;;;;;;;5.28;1.77;;;;;;;6.14;97.35;100433.94;5014471;28;20390;-90
2023/03/26 03:09:07;;;;;;;6.38;1.92;;;;;;;6.12;98.16;100428.81;5013483;28;20371;-90
2023/03/26 03:11:33;;;;;;;2.67;1.42;;;;;;;6.14;97.81;100419.31;5014362;28;20458;-90
2023/03/26 03:13:59;;;;;;;5.85;1.75;;;;;;;6.14;97.64;100421.06;5016901;28;20032;-90
2023/03/26 03:16:25;;;;;;;3.60;1.43;;;;;;;6.16;98.08;100414.19;5018472;28;20025;-90
2023/03/26 03:18:55;;;;;;;3.70;1.27;;;;;;;6.15;98.52;100410.72;5018330;28;20064;-90
2023/03/26 03:21:20;;;;;;;1.92;1.00;;;;;;;6.17;98.54;100409.00;5018390;28;20029;-90
2023/03/26 03:23:46;;;;;;;2.83;1.23;;;;;;;6.18;98.19;100403.00;5017579;28;20433;-91
2023/03/26 03:26:14;;;;;;;3.17;1.13;;;;;;;6.20;98.07;100391.84;5017304;28;20026;-90
2023/03/26 03:28:39;;;;;;;5.07;1.45;;;;;;;6.20;98.83;100389.25;5018170;28;20030;-90
2023/03/26 03:31:07;;;;;;;5.67;1.47;;;;;;;6.23;98.70;100389.25;5017707;28;20601;-90
2023/03/26 03:33:33;;;;;;;4.90;1.92;;;;;;;6.23;98.39;100389.25;5017689;28;20033;-90
2023/03/26 03:36:09;;;;;;;4.90;1.53;;;;;;;6.25;98.75;100388.38;5017909;28;20026;-91
2023/03/26 03:38:34;;;;;;;3.03;1.00;;;;;;;6.26;98.53;100390.09;5017972;28;20033;-91
2023/03/26 03:40:59;;;;;;;3.90;1.70;;;;;;;6.27;98.52;100383.19;5017689;28;20481;-90
2023/03/26 03:43:26;;;;;;;1.67;0.98;;;;;;;6.27;98.63;100385.78;5017609;28;20030;-91
2023/03/26 03:45:51;;;;;;;2.88;1.23;;;;;;;6.27;98.88;100378.03;5017717;28;20478;-90
2023/03/26 03:48:17;;;;;;;2.30;1.20;;;;;;;6.30;98.55;100380.63;5017758;28;20056;-90
2023/03/26 03:50:43;;;;;;;2.75;1.33;;;;;;;6.30;98.37;100376.34;5017560;28;20526;-89
2023/03/26 03:53:08;;;;;;;1.45;1.05;;;;;;;6.34;98.37;100377.16;5017144;28;20038;-90
2023/03/26 03:55:37;;;;;;;1.63;1.00;;;;;;;6.36;98.79;100370.25;5017061;28;20176;-89
2023/03/26 03:58:02;;;;;;;5.30;1.35;;;;;;;6.39;98.86;100374.56;5016414;28;20037;-89
2023/03/26 04:00:29;;;;;;;0.83;0.73;;;;;;;6.39;98.63;100370.25;5017152;28;20030;-90
2023/03/26 04:02:55;;;;;;;1.92;1.10;;;;;;;6.39;98.73;100359.09;5017677;28;20037;-90
2023/03/26 04:05:20;;;;;;;1.73;0.73;;;;;;;6.40;99.22;100364.22;5017587;28;20374;-90
2023/03/26 04:07:46;;;;;;;4.43;1.40;;;;;;;6.41;99.39;100357.38;5017044;28;20363;-89
2023/03/26 04:10:13;;;;;;;4.13;1.57;;;;;;;6.43;98.56;100350.47;5017378;28;20026;-89
2023/03/26 04:12:38;;;;;;;3.97;1.20;;;;;;;6.44;98.60;100352.19;5017142;28;20073;-89
2023/03/26 04:15:04;;;;;;;3.73;1.53;;;;;;;6.46;99.37;100343.59;5016060;28;20049;-89
2023/03/26 04:17:30;;;;;;;4.22;1.30;;;;;;;6.46;98.74;100337.56;5016736;28;20022;-89
2023/03/26 04:19:55;;;;;;;2.25;1.30;;;;;;;6.46;98.85;100327.25;5016402;28;20022;-89
2023/03/26 04:22:21;;;;;;;3.00;1.33;;;;;;;6.46;99.37;100322.97;5016469;28;20414;-89
2023/03/26 04:24:48;;;;;;;3.07;1.10;;;;;;;6.44;99.42;100313.50;5016428;28;20058;-89
2023/03/26 04:27:17;;;;;;;2.38;1.10;;;;;;;6.50;99.08;100313.47;5016509;28;20030;-89
2023/03/26 04:29:48;;;;;;;2.75;1.30;;;;;;;6.52;98.99;100308.31;5016067;28;20042;-89
2023/03/26 04:32:28;;;;;;;4.38;1.50;;;;;;;6.52;99.26;100303.16;5016521;28;20032;-89
2023/03/26 04:34:55;;;;;;;1.08;0.98;;;;;;;6.51;99.47;100298.84;5016192;28;20077;-89
2023/03/26 04:37:33;;;;;;;1.77;0.80;;;;;;;6.47;100.00;100293.72;5016565;28;20117;-89
2023/03/26 04:40:09;;;;;;;1.70;0.68;;;;;;;6.45;100.00;100292.03;5016515;28;20036;-89
2023/03/26 04:42:36;;;;;;;1.73;0.85;;;;;;;6.44;100.00;100285.16;5016515;28;20446;-89
2023/03/26 04:45:03;;;;;;;;;;;;;;;6.46;99.88;100284.31;5016307;28;20028;-89
2023/03/26 04:47:28;;;;;;;1.13;0.50;;;;;;;6.44;100.00;100277.41;5016416;28;20330;-89
2023/03/26 04:49:56;;;;;;;1.23;0.70;;;;;;;6.45;99.91;100276.56;5015981;28;20057;-89
2023/03/26 04:52:22;;;;;;;1.25;0.88;;;;;;;6.43;100.00;100267.97;5016499;28;20041;-89
2023/03/26 04:54:47;;;;;;;1.13;0.60;;;;;;;6.43;100.00;100266.25;5015669;28;20513;-89
2023/03/26 04:57:25;;;;;;;2.40;1.00;;;;;;;6.40;100.00;100260.28;5015621;28;20056;-89
2023/03/26 04:59:53;;;;;;;0.70;0.60;;;;;;;6.40;100.00;100258.56;5015890;28;20030;-89
2023/03/26 05:02:19;;;;;;;1.58;0.70;;;;;;;6.43;100.00;100258.53;5016131;28;20432;-90
2023/03/26 05:04:44;;;;;;;2.07;1.00;;;;;;;6.44;100.00;100252.50;5015392;28;20025;-89
2023/03/26 05:07:19;;;;;;;1.30;0.47;;;;;;;6.41;100.00;100239.66;5016066;28;20105;-89
2023/03/26 05:09:45;;;;;;;1.48;0.85;;;;;;;6.39;100.00;100236.22;5015818;28;20026;-88
2023/03/26 05:12:10;;;;;;;0.70;0.50;;;;;;;6.44;100.00;100234.47;5015824;28;20029;-89
2023/03/26 05:14:35;;;;;;;1.08;0.63;;;;;;;6.45;100.00;100237.88;5015796;28;20359;-89
2023/03/26 05:17:04;;;;;;;1.85;1.00;;;;;;;6.46;100.00;100234.44;5015662;28;20022;-89
2023/03/26 05:19:30;;;;;;;1.42;0.82;;;;;;;6.40;100.00;100222.47;5015786;28;20018;-90
2023/03/26 05:21:59;;;;;;;1.13;0.63;;;;;;;6.45;100.00;100225.00;5015942;28;20022;-89
2023/03/26 05:24:26;;;;;;;1.50;0.63;;;;;;;6.41;100.00;100216.44;5015601;28;20014;-89
2023/03/26 05:26:51;;;;;;;2.28;0.70;;;;;;;6.43;100.00;100217.28;5015285;28;20018;-89
2023/03/26 05:29:16;;;;;;;2.10;0.90;;;;;;;6.45;100.00;100207.81;5015771;28;20057;-89
2023/03/26 05:31:43;;;;;;;3.03;1.20;;;;;;;6.47;99.75;100206.06;5015590;28;20026;-89
2023/03/26 05:34:08;;;;;;;6.20;1.70;;;;;;;6.46;100.00;100200.94;5015275;28;20044;-90
2023/03/26 05:36:34;;;;;;;2.97;1.30;;;;;;;6.49;100.00;100203.50;5014552;28;20466;-89
2023/03/26 05:39:00;;;;;;;2.65;1.40;;;;;;;6.49;100.00;100195.75;5014802;28;20812;-89
2023/03/26 05:41:25;;;;;;;4.15;1.17;;;;;;;6.49;100.00;100195.75;5015608;28;20029;-89
2023/03/26 05:43:50;;;;;;;2.80;1.17;;;;;;;6.50;100.00;100194.91;5017114;28;20046;-90
2023/03/26 05:46:16;;;;;;;1.75;1.20;;;;;;;6.46;100.00;100185.47;5015413;28;20034;-89
2023/03/26 05:48:41;;;;;;;3.77;1.47;;;;;;;6.54;100.00;100190.56;5015350;28;20026;-88
2023/03/26 05:51:06;;;;;;;3.03;1.10;;;;;;;6.54;100.00;100193.97;5014926;28;20088;-89
2023/03/26 05:53:32;;;;;;;2.15;1.30;;;;;;;6.54;100.00;100191.41;5015018;28;20025;-89
2023/03/26 05:55:57;;;;;;;3.57;1.23;;;;;;;6.54;100.00;100182.81;5015119;28;20351;-89
2023/03/26 05:58:33;;;;;;;2.30;1.20;;;;;;;6.56;100.00;100191.41;5015190;28;20387;-89
2023/03/26 06:01:04;;;;;;;2.80;1.05;;;;;;;6.54;100.00;100181.09;5014812;28;20084;-89
2023/03/26 06:03:31;;;;;;;1.40;1.00;;;;;;;6.51;100.00;100175.97;5015231;28;20040;-89
2023/03/26 06:05:56;;;;;;;2.75;1.35;;;;;;;6.56;100.00;100186.25;5015022;28;20489;-90
2023/03/26 06:08:25;;;;;;;4.07;1.27;;;;;;;6.56;100.00;100176.78;5015127;28;20097;-89
2023/03/26 06:10:56;;;;;;;2.47;1.15;;;;;;;6.56;100.00;100171.63;5014765;28;20030;-89
2023/03/26 06:13:21;;;;;;;1.90;1.08;;;;;;;6.56;100.00;100181.09;5014775;28;20045;-89
2023/03/26 06:15:47;;;;;;;2.27;1.17;;;;;;;6.56;100.00;100174.19;5014460;28;20021;-89
2023/03/26 06:18:12;;;;;;;2.37;1.10;;;;;;;6.56;100.00;100168.19;5014867;28;20124;-90
2023/03/26 06:20:40;;;;;;;8.73;2.07;;;;;;;6.48;100.00;100161.38;5014485;28;20030;-90
2023/03/26 06:23:05;;;;;;;4.80;1.73;;;;;;;6.48;100.00;100158.78;5013618;28;20486;-90
2023/03/26 06:25:31;;;;;;;8.93;2.33;;;;;;;6.47;100.00;100161.41;5014693;28;20041;-90
2023/03/26 06:27:56;;;;;;;12.47;2.60;;;;;;;6.41;100.00;100154.59;5014426;28;20105;-89
2023/03/26 06:30:21;;;;;;;15.33;3.60;;;;;;;6.31;100.00;100145.22;5014294;28;20109;-90
2023/03/26 06:32:47;;;;;;;12.63;2.75;;;;;;;6.29;100.00;100150.41;5014360;28;20453;-90
2023/03/26 06:35:12;;;;;;;14.73;2.80;;;;;;;6.26;100.00;100146.97;5013992;28;20113;-88
2023/03/26 06:37:38;;;;;;;16.95;3.25;;;;;;;6.24;100.00;100151.31;5013772;28;20105;-91
2023/03/26 06:40:06;;;;;;;16.33;3.50;;;;;;;6.17;100.00;100137.63;5013351;28;20026;-89
2023/03/26 06:42:36;;;;;;;16.40;3.00;;;;;;;6.14;100.00;100140.22;5012465;28;20038;-89
2023/03/26 06:45:01;;;;;;;13.52;3.15;;;;;;;6.21;100.00;100148.75;5014372;28;20044;-88
2023/03/26 06:47:26;;;;;;;11.33;2.80;;;;;;;6.19;100.00;100143.63;5013715;28;20534;-90
2023/03/26 06:50:01;;;;;;;12.18;2.60;;;;;;;6.20;100.00;100150.47;5013800;28;20585;-90
2023/03/26 06:52:27;;;;;;;7.82;2.45;;;;;;;6.17;100.00;100141.03;5014318;28;20030;-90
2023/03/26 06:54:52;;;;;;;9.15;2.47;;;;;;;6.20;100.00;100140.16;5009414;28;20138;-90
2023/03/26 06:57:19;;;;;;;7.50;2.22;;;;;;;6.25;100.00;100146.13;5021126;28;20046;-91
2023/03/26 06:59:45;;;;;;;6.30;2.13;;;;;;;6.33;100.00;100154.66;5021925;28;20478;-91
2023/03/26 07:02:16;;;;;;;5.83;2.20;;;;;;;6.38;100.00;100156.34;5023172;28;20068;-90
2023/03/26 07:04:45;;;;;;;6.20;2.00;;;;;;;6.31;100.00;100140.06;5032260;28;20018;-90
2023/03/26 07:07:23;;;;;;;5.03;1.92;;;;;;;6.40;100.00;100150.28;5033748;28;20104;-91
2023/03/26 07:10:01;;;;;;;4.45;1.90;;;;;;;6.43;100.00;100146.81;5033402;28;20037;-90
2023/03/26 07:12:46;;;;;;;8.43;2.10;;;;;;;6.46;100.00;100144.22;4994189;28;20105;-90
2023/03/26 07:15:17;;;;;;;5.43;2.27;;;;;;;6.41;100.00;100133.97;4993920;28;20042;-90
2023/03/26 07:17:55;;;;;;;7.97;2.33;;;;;;;6.39;100.00;100125.38;4994229;28;20034;-90
2023/03/26 07:20:31;;;;;;;8.20;2.72;;;;;;;6.49;100.00;100144.19;4994601;28;20019;-90
2023/03/26 07:23:18;;;;;;;6.82;2.30;;;;;;;6.47;100.00;100133.03;4994031;28;20060;-90
2023/03/26 07:25:44;;;;;;;4.95;2.17;;;;;;;6.52;100.00;100130.41;4994519;28;20022;-89
2023/03/26 07:28:29;;;;;;;6.00;2.10;;;;;;;6.55;100.00;100141.56;5005225;28;20026;-90
2023/03/26 07:31:15;;;;;;;7.03;2.30;;;;;;;6.54;100.00;100132.09;5013261;28;20057;-89
2023/03/26 07:33:55;;;;;;;4.30;2.10;;;;;;;6.58;100.00;100125.22;5013336;28;20433;-90
2023/03/26 07:36:20;;;;;;;5.38;2.00;;;;;;;6.59;100.00;100134.63;5013569;28;20530;-90
2023/03/26 07:39:12;;;;;;;5.47;2.20;;;;;;;6.57;100.00;100119.19;5013523;28;20118;-89
2023/03/26 07:41:43;;;;;;;6.13;2.15;;;;;;;6.75;100.00;100120.72;5013707;28;20026;-90
2023/03/26 07:44:20;;;;;;;5.05;2.30;;;;;;;6.59;100.00;100107.13;5013578;28;20032;-90
2023/03/26 07:46:46;;;;;;;6.82;2.17;;;;;;;6.69;100.00;100112.19;4993759;28;20564;-91
2023/03/26 07:49:13;;;;;;;5.53;2.10;;;;;;;6.72;100.00;100118.16;4993901;28;20025;-91
2023/03/26 07:51:38;;;;;;;5.38;2.17;;;;;;;6.74;100.00;100120.75;4994264;28;20073;-91
2023/03/26 07:54:04;;;;;;;4.17;2.10;;;;;;;6.70;100.00;100101.84;5012860;28;20461;-90
2023/03/26 07:56:52;;;;;;;3.80;1.70;;;;;;;6.76;100.00;100111.25;5013166;28;20022;-91
2023/03/26 07:59:53;;;;;;;3.35;1.65;;;;;;;6.81;100.00;100112.06;5015066;28;20026;-91
2023/03/26 08:03:10;;;;;;;6.30;1.90;;;;;;;6.76;100.00;100103.50;5017008;28;20030;-88
2023/03/26 08:05:46;;;;;;;2.88;1.58;;;;;;;6.82;100.00;100112.91;5026664;22;20060;-88
2023/03/26 08:08:18;;;;;;;5.85;1.95;;;;;;;6.83;100.00;100110.31;5035764;28;20051;-89
2023/03/26 08:11:26;;;;;;;5.00;2.30;;;;;;;6.83;100.00;100106.88;5030251;28;20378;-89
2023/03/26 08:14:23;;;;;;;4.60;2.10;;;;;;;6.82;100.00;100105.16;5036202;28;20398;-91
2023/03/26 08:17:08;;;;;;;5.40;2.00;;;;;;;6.84;100.00;100108.59;5036717;28;20025;-89
2023/03/26 08:19:53;;;;;;;4.32;1.67;;;;;;;6.89;100.00;100102.50;5036080;28;20116;-89
2023/03/26 08:22:26;;;;;;;5.40;2.00;;;;;;;6.92;100.00;100105.06;5036794;28;20026;-90
2023/03/26 08:25:10;;;;;;;8.00;2.60;;;;;;;6.94;100.00;100098.16;5035918;28;20021;-90
2023/03/26 08:27:52;;;;;;;14.05;3.60;;;;;;;6.85;100.00;100097.41;5036188;28;20044;-89
2023/03/26 08:30:22;;;;;;;9.07;2.92;;;;;;;6.88;100.00;100108.53;5019185;28;20030;-89
2023/03/26 08:32:59;;;;;;;6.72;2.63;;;;;;;6.91;100.00;100098.19;5016238;28;20466;-89
2023/03/26 08:35:25;;;;;;;;;;;;;;;7.01;100.00;100098.94;5016650;28;20042;-89
2023/03/26 08:37:51;;;;;;;5.70;2.45;;;;;;;7.05;100.00;100097.16;5016177;28;19913;-89
2023/03/26 08:40:34;;;;;;;9.10;2.80;;;;;;;7.06;100.00;100104.03;5016476;28;20109;-89
2023/03/26 08:43:21;;;;;;;11.38;3.63;;;;;;;7.01;100.00;100106.66;5015779;28;20022;-89
2023/03/26 08:46:24;;;;;;;12.93;3.25;;;;;;;6.97;100.00;100104.16;5023330;28;20033;-87
2023/03/26 08:49:32;;;;;;;10.02;3.00;;;;;;;7.00;100.00;100097.22;5015935;28;20057;-88
2023/03/26 08:52:31;;;;;;;7.30;3.00;;;;;;;7.03;100.00;100104.06;5031472;28;20385;-89
2023/03/26 08:55:25;;;;;;;9.60;2.88;;;;;;;7.05;100.00;100097.16;5025162;28;20393;-89
2023/03/26 08:58:01;;;;;;;10.85;3.05;;;;;;;6.99;100.00;100092.94;5015718;28;20080;-88
2023/03/26 09:00:39;;;;;;;11.43;3.40;;;;;;;6.97;100.00;100094.66;5033481;28;20025;-89
2023/03/26 09:03:16;;;;;;;12.27;3.50;;;;;;;6.99;100.00;100097.22;5015365;28;20113;-89
2023/03/26 09:06:11;;;;;;;14.23;3.40;;;;;;;6.98;100.00;100087.81;5015309;28;20046;-89
2023/03/26 09:08:51;;;;;;;12.40;3.50;;;;;;;6.95;100.00;100091.25;5026697;28;20033;-89
2023/03/26 09:11:47;;;;;;;11.77;2.95;;;;;;;6.92;100.00;100091.31;5014529;28;20033;-88
2023/03/26 09:14:47;;;;;;;13.88;3.17;;;;;;;6.80;100.00;100079.41;5015027;28;20033;-87
2023/03/26 09:18:00;;;;;;;12.70;3.03;;;;;;;6.85;100.00;100093.09;5018531;28;20147;-88
2023/03/26 09:20:38;;;;;;;12.13;2.83;;;;;;;6.83;100.00;100081.06;5034259;28;20108;-88
2023/03/26 09:23:42;;;;;;;12.55;3.25;;;;;;;6.91;100.00;100092.19;5034051;28;20033;-88
2023/03/26 09:26:13;;;;;;;10.55;3.35;;;;;;;6.90;100.00;100088.72;5021891;28;20385;-88
2023/03/26 09:29:06;;;;;;;10.70;3.75;;;;;;;6.89;100.00;100081.84;5035111;28;20029;-88
2023/03/26 09:31:46;;;;;;;10.65;3.63;;;;;;;6.86;100.00;100083.63;5034353;28;20567;-88
2023/03/26 09:34:45;;;;;;;10.10;3.10;;;;;;;6.88;100.00;100085.31;5034718;28;20075;-88
2023/03/26 09:37:40;;;;;;;9.48;3.17;;;;;;;6.88;100.00;100084.47;5034002;28;20083;-87
2023/03/26 09:40:30;;;;;;;7.97;3.10;;;;;;;6.91;100.00;100077.53;4998440;28;20049;-82
2023/03/26 09:43:24;;;;;;;9.90;3.30;;;;;;;6.93;100.00;100080.97;5049860;28;20033;-91
2023/03/26 09:46:12;;;;;;;6.28;2.63;;;;;;;6.95;100.00;100083.50;5040009;28;20021;-88
2023/03/26 09:48:54;;;;;;;12.07;3.20;;;;;;;6.96;100.00;100077.47;5044746;28;20025;-87
2023/03/26 09:51:56;;;;;;;12.20;3.08;;;;;;;7.01;100.00;100080.88;5051118;28;20032;-89
2023/03/26 09:54:55;;;;;;;10.57;3.08;;;;;;;7.05;100.00;100076.53;5044945;22;20054;-88
2023/03/26 09:57:45;;;;;;;8.95;3.05;;;;;;;7.09;100.00;100076.47;5033392;28;20355;-88
2023/03/26 10:00:18;;;;;;;9.10;3.08;;;;;;;7.02;100.00;100081.72;5034089;28;20036;-88
2023/03/26 10:02:52;;;;;;;6.93;2.67;;;;;;;6.99;100.00;100085.19;5034553;28;20074;-88
2023/03/26 10:05:44;;;;;;;7.68;2.95;;;;;;;6.94;100.00;100084.38;5034168;28;20074;-89
2023/03/26 10:08:15;;;;;;;7.28;2.65;;;;;;;6.88;100.00;100089.63;4994603;28;20034;-89
2023/03/26 10:11:06;;;;;;;8.88;2.80;;;;;;;6.87;100.00;100085.34;4994861;28;20060;-88
2023/03/26 10:13:57;;;;;;;11.55;3.00;;;;;;;6.75;100.00;100087.19;4994772;28;20096;-88
2023/03/26 10:16:44;;;;;;;7.68;2.88;;;;;;;6.80;100.00;100097.44;4994908;28;20029;-89
2023/03/26 10:19:34;;;;;;;6.85;2.58;;;;;;;6.88;100.00;100087.06;4994371;28;20118;-88
2023/03/26 10:22:33;;;;;;;5.10;2.42;;;;;;;6.97;100.00;100086.09;4994020;28;20030;-88
2023/03/26 10:25:27;;;;;;;3.92;2.30;;;;;;;7.02;100.00;100076.56;4994375;28;20030;-88
2023/03/26 10:28:29;;;;;;;5.97;2.60;;;;;;;7.15;100.00;100085.84;4993718;28;20034;-86
2023/03/26 10:31:06;;;;;;;6.75;2.60;;;;;;;7.18;100.00;100092.69;4993661;28;20467;-86
2023/03/26 10:33:51;;;;;;;6.82;2.40;;;;;;;7.17;100.00;100086.69;4995804;28;20467;-86
2023/03/26 10:36:31;;;;;;;4.75;2.65;;;;;;;7.24;100.00;100093.44;5012890;28;20474;-86
2023/03/26 10:39:34;;;;;;;6.10;2.75;;;;;;;7.27;100.00;100089.97;5013038;28;20033;-87
2023/03/26 10:42:15;;;;;;;6.35;2.85;;;;;;;7.22;100.00;100100.34;5012714;28;20083;-87
2023/03/26 10:45:14;;;;;;;4.35;2.60;;;;;;;7.29;100.00;100095.13;5013337;28;20034;-86
2023/03/26 10:48:12;;;;;;;4.32;2.50;;;;;;;7.30;100.00;100097.69;5013264;28;20092;-86
2023/03/26 10:50:52;;;;;;;4.85;2.08;;;;;;;7.32;100.00;100097.69;5013136;28;20033;-87
2023/03/26 10:53:23;;;;;;;5.20;2.33;;;;;;;7.33;100.00;100099.34;5013497;28;20026;-88
2023/03/26 10:55:56;;;;;;;3.42;2.20;;;;;;;7.34;100.00;100098.47;5004535;28;20041;-86
2023/03/26 10:58:26;;;;;;;2.90;1.83;;;;;;;7.42;100.00;100102.69;5007711;28;20026;-89
2023/03/26 11:01:02;;;;;;;2.78;1.65;;;;;;;7.51;100.00;100100.81;5013109;28;20033;-87
2023/03/26 11:03:50;;;;;;;2.40;1.60;;;;;;;7.59;100.00;100104.19;5012803;28;20068;-88
2023/03/26 11:06:37;;;;;;;3.28;1.73;;;;;;;7.67;100.00;100102.31;5013463;28;20359;-88
2023/03/26 11:09:21;;;;;;;5.32;2.20;;;;;;;7.63;100.00;100100.66;5013406;28;20034;-88
2023/03/26 11:12:13;;;;;;;2.22;1.80;;;;;;;7.73;100.00;100109.13;5012509;28;20034;-87
2023/03/26 11:14:54;;;;;;;2.08;1.65;;;;;;;7.82;100.00;100110.72;5013458;28;20032;-89
2023/03/26 11:17:34;;;;;;;1.77;1.30;;;;;;;7.89;100.00;100109.72;5013301;28;20087;-88
2023/03/26 11:20:06;;;;;;;3.25;1.88;;;;;;;7.89;100.00;100110.56;5013002;28;20156;-88
2023/03/26 11:22:47;;;;;;;2.10;1.70;;;;;;;7.86;100.00;100108.06;5013081;28;20034;-88
2023/03/26 11:25:28;;;;;;;2.40;1.60;;;;;;;7.92;100.00;100114.84;5012543;28;20053;-87
2023/03/26 11:28:17;;;;;;;1.75;1.60;;;;;;;7.94;100.00;100112.25;5013134;28;20110;-87
2023/03/26 11:30:42;;;;;;;1.63;1.20;;;;;;;7.99;100.00;100118.19;5012847;28;20030;-88
2023/03/26 11:33:31;;;;;;;1.20;1.10;;;;;;;7.98;100.00;100114.75;5012892;28;20041;-89
2023/03/26 11:36:21;;;;;;;2.35;1.60;;;;;;;7.91;100.00;100125.19;5016994;28;20030;-88
2023/03/26 11:38:51;;;;;;;3.78;1.60;;;;;;;7.88;100.00;100131.28;5016380;28;20042;-88
2023/03/26 11:41:25;;;;;;;3.85;1.80;;;;;;;7.81;100.00;100132.25;5017764;28;20026;-89
2023/03/26 11:44:18;;;;;;;3.97;2.03;;;;;;;7.76;100.00;100137.50;5016900;28;20030;-89
2023/03/26 11:46:47;;;;;;;2.03;1.50;;;;;;;7.75;100.00;100124.59;5017087;28;20022;-89
2023/03/26 11:49:16;;;;;;;1.52;1.42;;;;;;;7.88;100.00;100132.13;5017393;28;20050;-89
2023/03/26 11:51:58;;;;;;;7.63;2.40;;;;;;;7.76;100.00;100136.63;5017211;28;20022;-88
2023/03/26 11:54:32;;;;;;;5.40;2.55;;;;;;;7.58;100.00;100136.03;5013755;28;20104;-89
2023/03/26 11:57:16;;;;;;;5.72;2.33;;;;;;;7.52;100.00;100130.94;5017052;28;20034;-89
2023/03/26 12:00:03;;;;;;;6.68;2.30;;;;;;;7.52;100.00;100129.22;5017027;28;20028;-88
2023/03/26 12:02:38;;;;;;;7.07;2.65;;;;;;;7.49;100.00;100142.16;5016977;28;20022;-89